createdAt,value
2022-08-04T00:01:09.462Z,0.95
2022-08-04T00:03:35.972Z,1.00
2022-08-04T00:06:02.432Z,1.30
2022-08-04T00:08:28.918Z,1.20
2022-08-04T00:10:55.381Z,1.30
2022-08-04T00:13:21.865Z,1.55
2022-08-04T00:15:48.405Z,1.10
2022-08-04T00:18:14.883Z,1.23
2022-08-04T00:20:41.344Z,1.00
2022-08-04T00:23:07.827Z,1.00
2022-08-04T00:25:34.292Z,1.35
2022-08-04T00:28:00.752Z,1.30
2022-08-04T00:30:27.225Z,1.20
2022-08-04T00:32:53.688Z,1.23
2022-08-04T00:35:20.173Z,0.95
2022-08-04T00:37:46.636Z,1.05
2022-08-04T00:40:13.109Z,0.93
2022-08-04T00:42:49.496Z,0.90
2022-08-04T00:45:25.886Z,1.00
2022-08-04T00:47:52.346Z,1.00
2022-08-04T00:50:18.812Z,1.25
2022-08-04T00:52:45.269Z,1.00
2022-08-04T00:55:11.735Z,1.00
2022-08-04T00:57:38.204Z,1.00
2022-08-04T01:00:04.678Z,0.90
2022-08-04T01:02:31.142Z,0.95
2022-08-04T01:04:57.623Z,0.90
2022-08-04T01:07:24.081Z,0.45
2022-08-04T01:09:50.551Z,0.70
2022-08-04T01:12:17.028Z,1.23
2022-08-04T01:14:43.511Z,1.00
2022-08-04T01:17:13.096Z,1.20
2022-08-04T01:19:39.632Z,1.00
2022-08-04T01:22:06.200Z,1.20
2022-08-04T01:24:32.692Z,1.10
2022-08-04T01:27:01.033Z,1.52
2022-08-04T01:29:43.758Z,1.38
2022-08-04T01:32:13.624Z,1.27
2022-08-04T01:34:40.082Z,1.63
2022-08-04T01:37:06.576Z,1.63
2022-08-04T01:39:33.093Z,1.40
2022-08-04T01:41:59.632Z,2.40
2022-08-04T01:44:26.096Z,1.50
2022-08-04T01:46:52.561Z,1.75
2022-08-04T01:49:19.033Z,1.60
2022-08-04T01:51:45.511Z,1.60
2022-08-04T01:54:11.985Z,1.58
2022-08-04T01:56:38.451Z,1.50
2022-08-04T01:59:04.927Z,1.90
2022-08-04T02:01:32.487Z,1.60
2022-08-04T02:04:19.397Z,1.50
2022-08-04T02:06:45.490Z,1.02
2022-08-04T02:09:11.965Z,0.98
2022-08-04T02:11:38.434Z,1.00
2022-08-04T02:14:04.920Z,1.42
2022-08-04T02:16:31.397Z,1.30
2022-08-04T02:18:57.859Z,0.90
2022-08-04T02:21:24.331Z,1.00
2022-08-04T02:23:50.801Z,0.88
2022-08-04T02:26:22.301Z,0.80
2022-08-04T02:28:49.445Z,1.30
2022-08-04T02:31:15.923Z,1.20
2022-08-04T02:33:42.395Z,1.20
2022-08-04T02:36:09.053Z,0.90
2022-08-04T02:38:35.506Z,1.00
2022-08-04T02:41:01.985Z,1.52
2022-08-04T02:43:50.813Z,1.15
2022-08-04T02:46:17.910Z,1.40
2022-08-04T02:48:44.692Z,1.60
2022-08-04T02:51:11.149Z,1.52
2022-08-04T02:53:37.606Z,1.45
2022-08-04T02:56:04.089Z,1.77
2022-08-04T02:58:30.545Z,1.80
2022-08-04T03:00:57.031Z,1.38
2022-08-04T03:03:23.509Z,1.13
2022-08-04T03:06:00.713Z,1.02
2022-08-04T03:08:28.152Z,1.13
2022-08-04T03:10:54.631Z,0.90
2022-08-04T03:13:21.094Z,1.10
2022-08-04T03:15:47.553Z,0.90
2022-08-04T03:18:14.038Z,1.45
2022-08-04T03:20:40.488Z,1.20
2022-08-04T03:23:13.588Z,1.00
2022-08-04T03:25:57.277Z,1.05
2022-08-04T03:28:24.146Z,1.33
2022-08-04T03:30:50.606Z,1.27
2022-08-04T03:33:17.068Z,1.02
2022-08-04T03:35:43.549Z,0.80
2022-08-04T03:38:10.030Z,1.08
2022-08-04T03:40:36.501Z,0.88
2022-08-04T03:43:02.952Z,0.90
2022-08-04T03:45:29.479Z,1.30
2022-08-04T03:47:55.947Z,1.23
2022-08-04T03:50:22.422Z,1.20
2022-08-04T03:52:48.884Z,1.10
2022-08-04T03:55:15.363Z,1.30
2022-08-04T03:57:41.835Z,1.02
2022-08-04T04:00:08.289Z,1.70
2022-08-04T04:02:34.796Z,1.50
2022-08-04T04:05:01.280Z,1.40
2022-08-04T04:07:35.941Z,1.15
2022-08-04T04:10:07.229Z,1.00
2022-08-04T04:12:34.067Z,1.10
2022-08-04T04:15:00.528Z,1.00
2022-08-04T04:17:27.005Z,1.20
2022-08-04T04:19:58.516Z,1.02
2022-08-04T04:22:25.256Z,1.60
2022-08-04T04:24:51.721Z,1.50
2022-08-04T04:27:18.192Z,1.02
2022-08-04T04:29:44.666Z,1.67
2022-08-04T04:32:11.135Z,1.25
2022-08-04T04:34:37.617Z,1.42
2022-08-04T04:37:04.085Z,1.10
2022-08-04T04:39:30.620Z,1.10
2022-08-04T04:41:57.096Z,1.05
2022-08-04T04:44:27.392Z,1.00
2022-08-04T04:46:56.713Z,0.90
2022-08-04T04:49:23.191Z,1.52
2022-08-04T04:51:49.643Z,1.17
2022-08-04T04:54:16.106Z,1.30
2022-08-04T04:56:42.585Z,1.13
2022-08-04T04:59:09.046Z,1.20
2022-08-04T05:01:35.517Z,0.88
2022-08-04T05:04:01.980Z,0.90
2022-08-04T05:06:28.464Z,1.08
2022-08-04T05:08:54.921Z,1.05
2022-08-04T05:11:21.397Z,1.25
2022-08-04T05:14:37.360Z,1.13
2022-08-04T05:16:34.314Z,0.98
2022-08-04T05:19:00.776Z,0.80
2022-08-04T05:21:27.247Z,1.20
2022-08-04T05:23:53.713Z,0.75
2022-08-04T05:26:20.186Z,0.70
2022-08-04T05:28:46.641Z,0.98
2022-08-04T05:31:13.103Z,0.98
2022-08-04T05:33:39.592Z,1.20
2022-08-04T05:36:20.480Z,1.17
2022-08-04T05:38:50.389Z,1.20
2022-08-04T05:41:16.910Z,1.08
2022-08-04T05:43:43.389Z,1.20
2022-08-04T05:46:09.851Z,1.60
2022-08-04T05:48:36.341Z,1.80
2022-08-04T05:51:02.805Z,2.83
2022-08-04T05:53:29.280Z,1.80
2022-08-04T05:55:58.995Z,1.83
2022-08-04T05:58:26.368Z,1.70
2022-08-04T06:00:52.889Z,2.42
2022-08-04T06:03:19.378Z,2.83
2022-08-04T06:05:45.839Z,1.65
2022-08-04T06:08:14.069Z,1.58
2022-08-04T06:10:40.682Z,1.88
2022-08-04T06:13:07.155Z,2.70
2022-08-04T06:15:33.623Z,2.97
2022-08-04T06:19:57.314Z,3.35
2022-08-04T06:20:50.222Z,4.93
2022-08-04T06:23:17.344Z,4.32
2022-08-04T06:25:43.811Z,4.32
2022-08-04T06:28:10.273Z,3.42
2022-08-04T06:30:36.759Z,3.15
2022-08-04T06:33:04.994Z,2.95
2022-08-04T06:35:31.814Z,3.10
2022-08-04T06:38:01.011Z,3.20
2022-08-04T06:40:31.656Z,2.75
2022-08-04T06:42:59.265Z,2.58
2022-08-04T06:45:25.762Z,2.75
2022-08-04T06:47:52.231Z,2.90
2022-08-04T06:51:30.618Z,2.30
2022-08-04T06:53:05.156Z,2.03
2022-08-04T06:55:31.646Z,2.63
2022-08-04T06:58:02.647Z,2.70
2022-08-04T07:02:56.166Z,1.85
2022-08-04T07:05:22.659Z,1.40
2022-08-04T07:07:57.012Z,2.28
2022-08-04T07:10:24.364Z,2.85
2022-08-04T07:12:50.849Z,1.83
2022-08-04T07:15:20.356Z,2.72
2022-08-04T07:17:46.830Z,1.83
2022-08-04T07:20:16.750Z,1.77
2022-08-04T07:23:02.552Z,1.80
2022-08-04T07:26:00.425Z,1.33
2022-08-04T07:28:15.482Z,1.33
2022-08-04T07:30:41.971Z,1.67
2022-08-04T07:33:08.433Z,1.40
2022-08-04T07:36:09.947Z,1.38
2022-08-04T07:38:21.363Z,1.25
2022-08-04T07:40:54.105Z,1.30
2022-08-04T07:43:20.580Z,1.42
2022-08-04T07:45:47.043Z,1.80
2022-08-04T07:48:13.536Z,1.40
2022-08-04T07:50:40.001Z,1.30
2022-08-04T07:53:54.387Z,1.70
2022-08-04T07:55:52.922Z,2.72
2022-08-04T07:58:19.401Z,1.60
2022-08-04T08:00:45.861Z,1.50
2022-08-04T08:03:12.376Z,1.70
2022-08-04T08:06:16.656Z,1.60
2022-08-04T08:08:25.320Z,1.27
2022-08-04T08:10:51.782Z,0.98
2022-08-04T08:13:18.259Z,0.80
2022-08-04T08:15:44.719Z,0.90
2022-08-04T08:18:11.191Z,0.70
2022-08-04T08:20:37.653Z,1.40
2022-08-04T08:23:04.125Z,1.05
2022-08-04T08:25:30.654Z,1.50
2022-08-04T08:27:57.123Z,1.25
2022-08-04T08:30:23.580Z,1.63
2022-08-04T08:32:50.098Z,1.92
2022-08-04T08:35:16.549Z,1.50
2022-08-04T08:37:43.018Z,1.27
2022-08-04T08:40:09.498Z,1.45
2022-08-04T08:42:35.966Z,0.93
2022-08-04T08:45:02.452Z,1.15
2022-08-04T08:47:28.919Z,1.63
2022-08-04T08:50:01.091Z,2.20
2022-08-04T08:52:56.616Z,2.42
2022-08-04T08:55:16.871Z,1.67
2022-08-04T08:57:43.974Z,1.30
2022-08-04T09:00:31.952Z,1.42
2022-08-04T09:03:04.489Z,1.65
2022-08-04T09:05:31.872Z,1.50
2022-08-04T09:07:58.337Z,1.40
2022-08-04T09:10:24.860Z,0.85
2022-08-04T09:12:51.345Z,0.95
2022-08-04T09:15:17.802Z,1.27
2022-08-04T09:17:44.283Z,1.73
2022-08-04T09:20:10.757Z,1.75
2022-08-04T09:22:37.232Z,1.90
2022-08-04T09:25:03.703Z,2.10
2022-08-04T09:27:30.177Z,1.63
2022-08-04T09:29:56.640Z,1.90
2022-08-04T09:32:23.104Z,1.33
2022-08-04T09:35:03.210Z,1.40
2022-08-04T09:37:31.666Z,2.42
2022-08-04T09:39:59.854Z,1.77
2022-08-04T09:42:29.356Z,1.95
2022-08-04T09:45:04.153Z,1.98
2022-08-04T09:47:39.361Z,1.30
2022-08-04T09:50:07.057Z,1.48
2022-08-04T09:52:33.513Z,1.63
2022-08-04T09:54:59.994Z,2.22
2022-08-04T09:57:26.448Z,1.60
2022-08-04T09:59:52.937Z,1.95
2022-08-04T10:02:19.684Z,1.55
2022-08-04T10:04:46.435Z,1.90
2022-08-04T10:07:12.921Z,1.67
2022-08-04T10:09:39.380Z,2.25
2022-08-04T10:12:05.846Z,2.05
2022-08-04T10:14:32.300Z,1.92
2022-08-04T10:16:58.772Z,2.15
2022-08-04T10:19:25.231Z,2.20
2022-08-04T10:21:59.237Z,2.22
2022-08-04T10:24:38.170Z,2.28
2022-08-04T10:27:04.654Z,2.20
2022-08-04T10:29:31.118Z,3.03
2022-08-04T10:31:57.581Z,2.30
2022-08-04T10:34:24.061Z,2.33
2022-08-04T10:36:50.519Z,2.50
2022-08-04T10:39:43.421Z,2.90
2022-08-04T10:42:03.428Z,2.95
2022-08-04T10:44:29.901Z,2.70
2022-08-04T10:47:08.348Z,1.95
2022-08-04T10:49:34.835Z,2.08
2022-08-04T10:52:01.304Z,1.80
2022-08-04T10:54:27.788Z,2.15
2022-08-04T10:56:56.903Z,2.30
2022-08-04T10:59:23.543Z,2.10
2022-08-04T11:02:01.692Z,2.53
2022-08-04T11:04:29.628Z,2.50
2022-08-04T11:06:56.117Z,2.38
2022-08-04T11:09:22.598Z,2.50
2022-08-04T11:12:00.567Z,2.85
2022-08-04T11:14:28.642Z,2.65
2022-08-04T11:16:55.113Z,2.83
2022-08-04T11:19:23.068Z,2.53
2022-08-04T11:22:09.531Z,2.47
2022-08-04T11:29:53.403Z,1.77
2022-08-04T11:32:19.876Z,2.05
2022-08-04T11:34:52.862Z,2.55
2022-08-04T11:37:19.662Z,2.20
2022-08-04T11:39:46.173Z,2.55
2022-08-04T11:42:12.722Z,2.10
2022-08-04T11:44:39.184Z,1.70
2022-08-04T11:47:05.649Z,2.20
2022-08-04T11:49:32.114Z,1.85
2022-08-04T11:52:18.575Z,1.40
2022-08-04T11:54:46.294Z,2.10
2022-08-04T11:57:19.509Z,1.65
2022-08-04T11:59:46.183Z,1.63
2022-08-04T12:02:12.731Z,1.17
2022-08-04T12:04:39.217Z,1.02
2022-08-04T12:07:28.803Z,1.13
2022-08-04T12:09:52.151Z,1.10
2022-08-04T12:12:18.632Z,0.75
2022-08-04T12:14:45.101Z,1.25
2022-08-04T12:17:11.553Z,1.02
2022-08-04T12:20:03.858Z,0.88
2022-08-04T12:22:28.259Z,1.30
2022-08-04T12:24:57.693Z,1.83
2022-08-04T12:27:25.840Z,1.65
2022-08-04T12:31:00.601Z,1.60
2022-08-04T12:32:48.231Z,1.80
2022-08-04T12:35:15.055Z,1.33
2022-08-04T12:37:41.512Z,1.50
2022-08-04T12:40:30.277Z,1.60
2022-08-04T12:42:56.151Z,2.20
2022-08-04T12:45:26.404Z,1.95
2022-08-04T12:47:52.880Z,1.73
2022-08-04T12:50:19.352Z,2.03
2022-08-04T12:53:03.106Z,2.40
2022-08-04T12:55:30.069Z,1.40
2022-08-04T12:57:56.529Z,2.00
2022-08-04T13:00:25.040Z,1.67
2022-08-04T13:02:54.080Z,1.33
2022-08-04T13:05:20.547Z,1.80
2022-08-04T13:07:47.000Z,1.50
2022-08-04T13:10:13.776Z,1.75
2022-08-04T13:12:44.836Z,2.15
2022-08-04T13:15:14.940Z,1.20
2022-08-04T13:17:44.789Z,1.15
2022-08-04T13:20:14.091Z,1.27
2022-08-04T13:22:42.251Z,1.10
2022-08-04T13:27:59.729Z,1.90
2022-08-04T13:30:25.387Z,1.25
2022-08-04T13:30:26.551Z,2.20
2022-08-04T13:32:53.092Z,1.73
2022-08-04T13:35:19.556Z,1.20
2022-08-04T13:37:46.022Z,1.20
2022-08-04T13:40:12.489Z,1.48
2022-08-04T13:42:38.972Z,1.75
2022-08-04T13:45:05.440Z,1.38
2022-08-04T13:47:31.923Z,1.20
2022-08-04T13:50:10.277Z,1.60
2022-08-04T13:52:37.436Z,1.48
2022-08-04T13:55:03.901Z,1.50
2022-08-04T13:57:30.378Z,2.03
2022-08-04T13:59:56.841Z,1.50
2022-08-04T14:02:23.314Z,1.02
2022-08-04T14:04:49.771Z,1.48
2022-08-04T14:07:20.860Z,0.90
2022-08-04T14:10:02.655Z,0.93
2022-08-04T14:12:46.405Z,1.48
2022-08-04T14:15:13.544Z,1.73
2022-08-04T14:20:21.498Z,1.45
2022-08-04T14:22:47.992Z,1.23
2022-08-04T14:25:15.599Z,1.60
2022-08-04T14:27:43.027Z,1.10
2022-08-04T14:30:09.500Z,1.80
2022-08-04T14:32:35.965Z,1.60
2022-08-04T14:35:06.155Z,1.30
2022-08-04T14:37:44.102Z,1.10
2022-08-04T14:40:29.707Z,1.88
2022-08-04T14:42:56.954Z,1.55
2022-08-04T14:45:23.426Z,1.33
2022-08-04T14:47:52.806Z,1.35
2022-08-04T14:50:19.748Z,1.70
2022-08-04T14:52:46.209Z,1.40
2022-08-04T14:55:15.794Z,1.30
2022-08-04T14:58:35.211Z,1.67
2022-08-04T15:00:29.002Z,1.27
2022-08-04T15:02:55.458Z,1.75
2022-08-04T15:05:59.992Z,1.40
2022-08-04T15:08:08.376Z,1.52
2022-08-04T15:10:34.846Z,1.30
2022-08-04T15:13:01.312Z,1.27
2022-08-04T15:15:37.170Z,1.30
2022-08-04T15:18:04.095Z,0.98
2022-08-04T15:20:30.566Z,1.17
2022-08-04T15:22:57.032Z,1.40
2022-08-04T15:25:23.510Z,1.50
2022-08-04T15:27:49.975Z,1.40
2022-08-04T15:30:16.450Z,1.17
2022-08-04T15:32:42.921Z,1.30
2022-08-04T15:35:09.396Z,0.90
2022-08-04T15:37:35.854Z,1.05
2022-08-04T15:40:02.330Z,1.48
2022-08-04T15:42:28.973Z,1.05
2022-08-04T15:44:55.566Z,1.10
2022-08-04T15:47:25.192Z,1.52
2022-08-04T15:49:51.657Z,1.20
2022-08-04T15:52:18.464Z,1.40
2022-08-04T15:54:51.994Z,1.15
2022-08-04T15:57:19.438Z,1.30
2022-08-04T15:59:45.892Z,1.23
2022-08-04T16:02:12.401Z,1.20
2022-08-04T16:04:38.882Z,1.20
2022-08-04T16:07:05.346Z,1.30
2022-08-04T16:09:45.712Z,1.55
2022-08-04T16:12:13.714Z,1.65
2022-08-04T16:14:40.419Z,1.10
2022-08-04T16:17:06.872Z,1.40
2022-08-04T16:19:35.943Z,1.40
2022-08-04T16:22:02.491Z,1.33
2022-08-04T16:24:28.961Z,1.38
2022-08-04T16:26:56.701Z,1.50
2022-08-04T16:29:23.713Z,1.10
2022-08-04T16:31:50.173Z,1.30
2022-08-04T16:34:49.117Z,1.20
2022-08-04T16:37:03.103Z,1.33
2022-08-04T16:39:29.635Z,1.10
2022-08-04T16:42:16.027Z,1.30
2022-08-04T16:44:53.088Z,1.10
2022-08-04T16:47:22.105Z,1.27
2022-08-04T16:49:51.909Z,1.10
2022-08-04T16:52:18.617Z,1.00
2022-08-04T16:54:45.079Z,1.10
2022-08-04T16:57:11.573Z,1.20
2022-08-04T16:59:38.041Z,1.20
2022-08-04T17:02:04.609Z,1.10
2022-08-04T17:04:31.146Z,1.20
2022-08-04T17:06:57.613Z,1.05
2022-08-04T17:09:28.448Z,1.20
2022-08-04T17:11:55.310Z,1.23
2022-08-04T17:14:21.782Z,1.33
2022-08-04T17:16:48.256Z,1.20
2022-08-04T17:19:20.425Z,1.40
2022-08-04T17:21:52.267Z,1.45
2022-08-04T17:24:18.728Z,0.93
2022-08-04T17:26:51.920Z,1.30
2022-08-04T17:29:21.173Z,1.42
2022-08-04T17:31:48.028Z,1.40
2022-08-04T17:34:16.708Z,1.40
2022-08-04T17:36:46.146Z,1.20
2022-08-04T17:39:17.072Z,1.30
2022-08-04T17:41:48.674Z,1.30
2022-08-04T17:44:15.826Z,1.30
2022-08-04T17:46:43.308Z,1.38
2022-08-04T17:49:09.958Z,1.00
2022-08-04T17:52:05.185Z,1.25
2022-08-04T17:54:29.908Z,1.00
2022-08-04T17:57:04.019Z,1.55
2022-08-04T17:59:56.931Z,1.00
2022-08-04T18:02:16.938Z,1.05
2022-08-04T18:05:05.600Z,1.40
2022-08-04T18:08:46.061Z,0.90
2022-08-04T18:10:29.065Z,0.95
2022-08-04T18:13:01.408Z,1.13
2022-08-04T18:15:29.982Z,1.10
2022-08-04T18:18:21.300Z,1.00
2022-08-04T18:20:50.184Z,0.88
2022-08-04T18:23:16.960Z,1.10
2022-08-04T18:25:51.589Z,1.10
2022-08-04T18:28:26.553Z,1.20
2022-08-04T18:30:55.424Z,1.23
2022-08-04T18:33:40.255Z,1.30
2022-08-04T18:36:34.657Z,1.50
2022-08-04T18:38:58.046Z,1.42
2022-08-04T18:41:25.248Z,1.17
2022-08-04T18:43:55.994Z,1.60
2022-08-04T18:46:23.267Z,1.38
2022-08-04T18:48:53.484Z,1.10
2022-08-04T18:51:23.223Z,1.10
2022-08-04T18:53:55.100Z,0.88
2022-08-04T18:56:29.586Z,1.45
2022-08-04T18:58:58.074Z,1.15
2022-08-04T19:01:29.875Z,1.20
2022-08-04T19:04:33.362Z,1.20
2022-08-04T19:07:23.415Z,1.20
2022-08-04T19:09:51.893Z,1.23
2022-08-04T19:12:26.906Z,1.05
2022-08-04T19:14:58.174Z,1.00
2022-08-04T19:17:53.743Z,0.73
2022-08-04T19:20:24.523Z,0.80
2022-08-04T19:24:29.358Z,1.15
2022-08-04T19:26:02.450Z,0.90
2022-08-04T19:28:27.937Z,1.35
2022-08-04T19:30:56.204Z,1.10
2022-08-04T19:33:25.308Z,1.17
2022-08-04T19:35:52.016Z,1.00
2022-08-04T19:38:18.493Z,1.10
2022-08-04T19:40:52.655Z,1.15
2022-08-04T19:43:19.510Z,1.20
2022-08-04T19:45:46.020Z,1.25
2022-08-04T19:48:19.388Z,1.15
2022-08-04T19:50:46.212Z,1.20
2022-08-04T19:53:19.627Z,1.25
2022-08-04T19:55:49.656Z,1.20
2022-08-04T19:58:16.695Z,1.10
2022-08-04T20:00:50.970Z,1.45
2022-08-04T20:03:20.307Z,1.00
2022-08-04T20:05:54.787Z,1.13
2022-08-04T20:08:21.988Z,1.00
2022-08-04T20:10:52.020Z,0.93
2022-08-04T20:13:18.733Z,1.10
2022-08-04T20:15:57.481Z,1.10
2022-08-04T20:18:36.550Z,1.10
2022-08-04T20:21:11.373Z,1.13
2022-08-04T20:23:48.413Z,1.08
2022-08-04T20:26:16.585Z,1.20
2022-08-04T20:28:43.048Z,1.08
2022-08-04T20:31:12.459Z,1.10
2022-08-04T20:33:53.514Z,1.17
2022-08-04T20:36:21.413Z,1.27
2022-08-04T20:38:52.776Z,1.10
2022-08-04T20:43:49.558Z,1.30
2022-08-04T20:46:18.088Z,1.30
2022-08-04T20:48:54.894Z,1.42
2022-08-04T20:51:25.932Z,1.27
2022-08-04T20:53:58.765Z,1.42
2022-08-04T20:56:31.301Z,1.70
2022-08-04T20:58:58.111Z,1.50
2022-08-04T21:01:27.130Z,1.20
2022-08-04T21:03:59.782Z,1.17
2022-08-04T21:06:27.356Z,1.17
2022-08-04T21:08:57.171Z,1.30
2022-08-04T21:11:23.902Z,1.13
2022-08-04T21:13:58.990Z,1.40
2022-08-04T21:16:53.674Z,1.30
2022-08-04T21:19:13.422Z,1.40
2022-08-04T21:21:40.490Z,1.00
2022-08-04T21:24:07.193Z,1.20
2022-08-04T21:26:33.682Z,1.35
2022-08-04T21:29:00.158Z,1.42
2022-08-04T21:31:26.630Z,1.02
2022-08-04T21:33:54.285Z,1.75
2022-08-04T21:36:20.751Z,1.48
2022-08-04T21:38:51.369Z,1.63
2022-08-04T21:41:20.368Z,2.10
2022-08-04T21:43:51.748Z,2.00
2022-08-04T21:46:18.398Z,1.40
2022-08-04T21:48:44.936Z,1.35
2022-08-04T21:51:57.025Z,1.55
2022-08-04T21:54:01.735Z,1.00
2022-08-04T21:56:29.195Z,1.05
2022-08-04T21:58:55.723Z,1.02
2022-08-04T22:01:51.967Z,1.13
2022-08-04T22:04:11.033Z,1.20
2022-08-04T22:06:38.931Z,1.25
2022-08-04T22:09:14.498Z,1.33
2022-08-04T22:11:44.212Z,1.40
2022-08-04T22:14:15.120Z,1.15
2022-08-04T22:16:41.592Z,1.05
2022-08-04T22:19:08.791Z,0.77
2022-08-04T22:21:39.262Z,0.70
2022-08-04T22:24:14.208Z,1.10
2022-08-04T22:26:40.945Z,0.50
2022-08-04T22:29:07.418Z,0.63
2022-08-04T22:31:53.363Z,0.70
2022-08-04T22:34:22.740Z,0.63
2022-08-04T22:36:50.446Z,0.82
2022-08-04T22:39:17.359Z,0.40
2022-08-04T22:42:03.092Z,1.20
2022-08-04T22:44:32.992Z,1.08
2022-08-04T22:46:59.921Z,1.00
2022-08-04T22:49:31.685Z,0.57
2022-08-04T22:51:58.535Z,1.00
2022-08-04T22:54:26.096Z,0.70
2022-08-04T22:56:56.576Z,0.80
2022-08-04T22:59:23.162Z,0.88
2022-08-04T23:01:59.710Z,1.10
2022-08-04T23:04:27.926Z,0.90
2022-08-04T23:06:54.437Z,0.90
2022-08-04T23:09:21.345Z,0.90
2022-08-04T23:11:53.894Z,1.60
2022-08-04T23:14:20.493Z,2.10
2022-08-04T23:16:53.355Z,2.25
2022-08-04T23:19:19.880Z,2.17
2022-08-04T23:22:00.912Z,1.60
2022-08-04T23:24:29.673Z,1.20
2022-08-04T23:26:58.744Z,1.10
2022-08-04T23:29:25.210Z,1.13
2022-08-04T23:31:59.359Z,1.00
2022-08-04T23:34:26.817Z,1.13
2022-08-04T23:36:55.698Z,1.00
2022-08-04T23:39:25.703Z,1.40
2022-08-04T23:42:14.996Z,1.52
2022-08-04T23:44:47.284Z,1.30
2022-08-04T23:48:18.480Z,1.05
2022-08-04T23:50:00.214Z,0.90
2022-08-04T23:52:29.867Z,0.90
2022-08-04T23:54:58.422Z,1.13
2022-08-04T23:57:25.081Z,1.30
2022-08-04T23:59:58.173Z,0.90
